Time;durP1;ratioP1;P1;durP2;ratioP2;P2;SDS_P1;SDS_P2;PMS_P1;PMS_P2;Temp;Humidity;BMP_temperature;BMP_pressure;BME280_temperature;BME280_humidity;BME280_pressure;Samples;Min_cycle;Max_cycle;Signal;HPM_P1;HPM_P2
2021/09/07 00:01:28;;;;;;;19.13;10.85;;;461.60;1536.00;;;;;;5053945;28;20025;-69
2021/09/07 00:03:54;;;;;;;19.35;10.82;;;461.60;1510.40;;;;;;5035379;28;20025;-69
2021/09/07 00:06:20;;;;;;;17.02;10.43;;;461.50;1536.00;;;;;;5035025;28;20040;-69
2021/09/07 00:08:46;;;;;;;16.35;10.93;;;461.50;1536.00;;;;;;5053567;28;20467;-68
2021/09/07 00:11:14;;;;;;;21.83;10.85;;;461.50;1536.00;;;;;;5053634;28;20028;-69
2021/09/07 00:13:40;;;;;;;16.27;11.25;;;461.40;1536.00;;;;;;5053146;28;20049;-69
2021/09/07 00:16:05;;;;;;;17.75;10.75;;;461.40;1536.00;;;;;;5052891;28;20032;-69
2021/09/07 00:18:31;;;;;;;22.17;10.85;;;461.40;1536.00;;;;;;5035309;28;20044;-68
2021/09/07 00:20:57;;;;;;;19.70;11.35;;;461.40;1561.60;;;;;;5053723;28;20029;-69
2021/09/07 00:23:22;;;;;;;19.38;11.23;;;461.30;1561.60;;;;;;5053575;28;20029;-69
2021/09/07 00:25:48;;;;;;;18.00;10.80;;;461.30;1561.60;;;;;;5035572;28;20021;-68
2021/09/07 00:28:14;;;;;;;21.00;11.43;;;461.30;1561.60;;;;;;5053176;28;20164;-68
2021/09/07 00:30:40;;;;;;;14.55;10.27;;;461.20;1561.60;;;;;;5053141;28;20024;-69
2021/09/07 00:33:08;;;;;;;20.90;11.88;;;461.20;1561.60;;;;;;5053501;28;20049;-69
2021/09/07 00:35:34;;;;;;;15.85;10.70;;;461.20;1561.60;;;;;;5053410;28;20025;-68
2021/09/07 00:38:00;;;;;;;20.80;10.57;;;461.20;1587.20;;;;;;5035643;28;20029;-69
2021/09/07 00:40:27;;;;;;;20.23;12.77;;;461.20;1587.20;;;;;;5052830;28;20521;-69
2021/09/07 00:42:54;;;;;;;19.65;11.43;;;461.20;1587.20;;;;;;5053340;28;20032;-68
2021/09/07 00:45:19;;;;;;;16.40;11.18;;;461.20;1587.20;;;;;;5052989;28;20033;-68
2021/09/07 00:47:45;;;;;;;18.08;11.82;;;461.20;1587.20;;;;;;5053273;28;20037;-68
2021/09/07 00:50:12;;;;;;;18.60;10.85;;;461.10;1587.20;;;;;;5052455;28;20029;-68
2021/09/07 00:52:40;;;;;;;15.52;11.05;;;461.20;1587.20;;;;;;5053104;28;20021;-69
2021/09/07 00:55:07;;;;;;;17.58;12.07;;;461.20;1587.20;;;;;;5053218;28;20036;-71
2021/09/07 00:57:34;;;;;;;21.23;12.25;;;461.20;1612.80;;;;;;5052857;28;20024;-68
2021/09/07 01:00:04;;;;;;;20.90;11.93;;;461.10;1612.80;;;;;;5052950;28;20048;-68
2021/09/07 01:02:29;;;;;;;16.98;11.02;;;461.10;1612.80;;;;;;5052897;28;20021;-68
2021/09/07 01:04:55;;;;;;;15.95;10.55;;;461.10;1612.80;;;;;;5034857;28;20040;-68
2021/09/07 01:07:21;;;;;;;19.83;11.23;;;461.00;1612.80;;;;;;5053028;28;20107;-68
2021/09/07 01:09:48;;;;;;;16.42;11.35;;;460.90;1612.80;;;;;;5052918;28;20102;-69
2021/09/07 01:12:14;;;;;;;19.63;11.30;;;461.00;1638.40;;;;;;5052952;28;20113;-69
2021/09/07 01:14:41;;;;;;;16.17;11.50;;;460.90;1638.40;;;;;;5052625;28;20392;-68
2021/09/07 01:17:15;;;;;;;18.33;11.52;;;460.80;1638.40;;;;;;5053139;28;20109;-68
2021/09/07 01:19:46;;;;;;;17.90;11.85;;;460.80;1638.40;;;;;;5053089;28;20100;-69
2021/09/07 01:22:16;;;;;;;18.95;11.25;;;460.80;1664.00;;;;;;5053079;28;20025;-68
2021/09/07 01:24:42;;;;;;;17.17;11.25;;;460.80;1664.00;;;;;;5053200;28;20076;-68
2021/09/07 01:27:08;;;;;;;20.85;12.45;;;460.80;1664.00;;;;;;5053649;28;20033;-68
2021/09/07 01:29:36;;;;;;;21.33;11.77;;;460.80;1664.00;;;;;;5056256;28;20032;-68
2021/09/07 01:32:03;;;;;;;18.85;12.20;;;436.10;1638.40;;;;;;5056539;28;20078;-68
2021/09/07 01:34:29;;;;;;;17.33;11.85;;;436.10;1638.40;;;;;;5038038;28;20025;-68
2021/09/07 01:36:55;;;;;;;18.83;11.85;;;436.00;1638.40;;;;;;5056472;28;20113;-68
2021/09/07 01:39:21;;;;;;;23.50;12.65;;;436.00;1664.00;;;;;;5056378;28;20021;-68
2021/09/07 01:41:48;;;;;;;21.65;13.98;;;435.90;1664.00;;;;;;5038684;28;20025;-68
2021/09/07 01:44:14;;;;;;;21.20;11.63;;;435.90;1664.00;;;;;;5055998;28;20471;-68
2021/09/07 01:46:40;;;;;;;19.23;12.20;;;435.90;1664.00;;;;;;5056087;28;20025;-68
2021/09/07 01:49:09;;;;;;;17.05;11.25;;;435.80;1664.00;;;;;;5056104;28;20037;-68
2021/09/07 01:51:36;;;;;;;23.50;13.65;;;435.80;1664.00;;;;;;5056069;28;20075;-68
2021/09/07 01:54:03;;;;;;;20.20;12.23;;;435.90;1664.00;;;;;;5056105;28;20028;-68
2021/09/07 01:56:29;;;;;;;22.50;12.10;;;435.80;1664.00;;;;;;5056209;28;20438;-68
2021/09/07 01:58:54;;;;;;;20.10;13.05;;;435.80;1664.00;;;;;;5055905;28;20044;-68
2021/09/07 02:01:20;;;;;;;16.90;12.52;;;435.80;1664.00;;;;;;5037242;28;20156;-68
2021/09/07 02:03:46;;;;;;;20.60;13.00;;;435.70;1689.60;;;;;;5055356;28;20035;-68
2021/09/07 02:06:11;;;;;;;18.50;13.23;;;435.60;1689.60;;;;;;5055996;28;20059;-68
2021/09/07 02:08:37;;;;;;;20.23;12.52;;;435.60;1689.60;;;;;;5055755;28;20459;-68
2021/09/07 02:11:03;;;;;;;19.85;13.48;;;435.60;1689.60;;;;;;5055951;28;20017;-68
2021/09/07 02:13:28;;;;;;;18.15;12.32;;;435.60;1689.60;;;;;;5055333;28;20132;-68
2021/09/07 02:15:54;;;;;;;21.80;12.90;;;435.50;1715.20;;;;;;5055461;28;20021;-68
2021/09/07 02:18:20;;;;;;;24.08;14.10;;;435.50;1715.20;;;;;;5055583;28;20025;-68
2021/09/07 02:20:45;;;;;;;25.67;13.98;;;435.50;1715.20;;;;;;5036966;28;20033;-67
2021/09/07 02:23:11;;;;;;;20.63;13.02;;;435.50;1715.20;;;;;;5056121;28;20035;-68
2021/09/07 02:25:37;;;;;;;19.75;12.48;;;435.50;1715.20;;;;;;5036816;28;20418;-68
2021/09/07 02:28:03;;;;;;;16.10;12.07;;;435.40;1715.20;;;;;;5037630;28;20047;-68
2021/09/07 02:30:29;;;;;;;17.95;11.50;;;435.40;1715.20;;;;;;5055118;28;20383;-68
2021/09/07 02:32:56;;;;;;;27.20;12.43;;;435.40;1715.20;;;;;;5055149;28;20032;-68
2021/09/07 02:35:22;;;;;;;20.33;12.60;;;435.40;1715.20;;;;;;5055438;28;20376;-68
2021/09/07 02:37:48;;;;;;;21.63;12.10;;;435.40;1715.20;;;;;;5037608;28;20075;-68
2021/09/07 02:40:14;;;;;;;16.48;12.07;;;435.40;1715.20;;;;;;5054689;28;20028;-69
2021/09/07 02:42:40;;;;;;;21.38;12.85;;;435.40;1740.80;;;;;;5055154;28;20025;-68
2021/09/07 02:45:06;;;;;;;23.58;12.25;;;435.40;1740.80;;;;;;5054968;28;20017;-68
2021/09/07 02:47:32;;;;;;;22.17;13.82;;;435.30;1740.80;;;;;;5036352;28;20041;-68
2021/09/07 02:49:57;;;;;;;27.10;13.35;;;435.30;1740.80;;;;;;5036778;28;20382;-67
2021/09/07 02:52:23;;;;;;;25.02;12.55;;;435.20;1740.80;;;;;;5055012;28;20029;-68
2021/09/07 02:54:49;;;;;;;25.77;11.85;;;435.20;1740.80;;;;;;5055067;28;20024;-68
2021/09/07 02:57:15;;;;;;;26.98;13.13;;;435.20;1740.80;;;;;;5054690;28;20465;-68
2021/09/07 02:59:40;;;;;;;18.48;11.85;;;435.30;1740.80;;;;;;5036317;28;20036;-68
2021/09/07 03:02:06;;;;;;;18.58;11.80;;;435.30;1740.80;;;;;;5054916;28;20033;-69
2021/09/07 03:04:32;;;;;;;22.25;12.43;;;435.30;1740.80;;;;;;5035748;28;20079;-67
2021/09/07 03:06:57;;;;;;;17.75;12.95;;;435.30;1740.80;;;;;;5053970;28;20056;-68
2021/09/07 03:09:23;;;;;;;18.65;11.82;;;435.30;1740.80;;;;;;5054209;28;20488;-68
2021/09/07 03:11:49;;;;;;;15.27;11.45;;;435.30;1740.80;;;;;;5054341;28;20083;-67
2021/09/07 03:14:15;;;;;;;21.05;12.57;;;435.30;1766.40;;;;;;5054479;28;20039;-68
2021/09/07 03:16:41;;;;;;;16.50;10.93;;;435.30;1740.80;;;;;;5054625;28;20021;-68
2021/09/07 03:19:06;;;;;;;31.48;12.75;;;435.30;1740.80;;;;;;5054280;28;20025;-67
2021/09/07 03:21:32;;;;;;;25.50;13.35;;;435.30;1740.80;;;;;;5054260;28;20044;-68
2021/09/07 03:23:58;;;;;;;20.85;12.27;;;435.30;1766.40;;;;;;5054495;28;20498;-67
2021/09/07 03:26:24;;;;;;;15.73;11.82;;;435.30;1740.80;;;;;;5036058;28;20110;-67
2021/09/07 03:28:49;;;;;;;14.75;10.93;;;435.30;1740.80;;;;;;5054151;28;20086;-68
2021/09/07 03:31:15;;;;;;;19.13;10.98;;;435.30;1740.80;;;;;;5053634;28;20029;-67
2021/09/07 03:33:41;;;;;;;16.02;11.23;;;435.30;1740.80;;;;;;5054385;28;20029;-67
2021/09/07 03:36:07;;;;;;;17.92;11.38;;;435.30;1740.80;;;;;;5054162;28;20025;-67
2021/09/07 03:38:33;;;;;;;18.23;11.82;;;435.30;1740.80;;;;;;5035763;28;20037;-67
2021/09/07 03:40:58;;;;;;;17.20;11.70;;;435.20;1740.80;;;;;;5035927;28;20040;-67
2021/09/07 03:43:24;;;;;;;21.85;13.25;;;435.20;1740.80;;;;;;5053814;28;20094;-67
2021/09/07 03:45:50;;;;;;;28.13;13.98;;;435.30;1740.80;;;;;;5053930;28;20048;-67
2021/09/07 03:48:15;;;;;;;27.65;11.70;;;435.30;1740.80;;;;;;5054446;28;20039;-67
2021/09/07 03:50:41;;;;;;;18.60;11.13;;;435.20;1740.80;;;;;;5034770;28;20029;-67
2021/09/07 03:53:07;;;;;;;16.60;11.18;;;435.20;1740.80;;;;;;5054346;28;20037;-67
2021/09/07 03:55:32;;;;;;;21.95;12.32;;;435.20;1715.20;;;;;;5053953;28;20025;-67
2021/09/07 03:57:58;;;;;;;20.92;12.13;;;435.20;1715.20;;;;;;5036176;28;20119;-67
2021/09/07 04:00:24;;;;;;;25.13;12.07;;;435.20;1715.20;;;;;;5053674;28;20036;-67
2021/09/07 04:02:49;;;;;;;20.08;12.50;;;435.20;1740.80;;;;;;5035876;28;20020;-67
2021/09/07 04:05:15;;;;;;;17.55;12.00;;;435.20;1715.20;;;;;;5053301;28;20116;-67
2021/09/07 04:07:41;;;;;;;15.15;11.00;;;435.20;1740.80;;;;;;5053673;28;20083;-67
2021/09/07 04:10:07;;;;;;;16.90;10.63;;;435.20;1740.80;;;;;;5053412;28;20374;-67
2021/09/07 04:12:33;;;;;;;17.98;10.75;;;435.20;1740.80;;;;;;5053423;28;20048;-67
2021/09/07 04:14:59;;;;;;;13.85;10.32;;;435.20;1740.80;;;;;;5052984;28;20021;-67
2021/09/07 04:17:25;;;;;;;19.90;10.02;;;435.20;1740.80;;;;;;5053538;28;20028;-67
2021/09/07 04:19:50;;;;;;;11.45;9.63;;;435.20;1740.80;;;;;;5053543;28;20032;-67
2021/09/07 04:22:16;;;;;;;13.10;9.35;;;435.20;1740.80;;;;;;5053725;28;20029;-67
2021/09/07 04:24:42;;;;;;;19.02;10.48;;;435.20;1740.80;;;;;;5053786;28;20033;-67
2021/09/07 04:27:08;;;;;;;19.88;10.82;;;435.20;1740.80;;;;;;5053287;28;20031;-67
2021/09/07 04:29:33;;;;;;;14.93;9.52;;;435.20;1740.80;;;;;;5053429;28;20025;-67
2021/09/07 04:31:59;;;;;;;15.75;9.57;;;435.20;1740.80;;;;;;5053419;28;20025;-67
2021/09/07 04:34:25;;;;;;;20.15;10.10;;;435.20;1740.80;;;;;;5035135;28;20040;-67
2021/09/07 04:36:50;;;;;;;24.63;10.13;;;435.20;1740.80;;;;;;5052943;28;20021;-67
2021/09/07 04:39:16;;;;;;;19.63;9.90;;;435.30;1740.80;;;;;;5034886;28;20136;-67
2021/09/07 04:41:42;;;;;;;23.35;10.23;;;435.30;1740.80;;;;;;5053451;28;20033;-67
2021/09/07 04:44:08;;;;;;;17.88;9.90;;;435.30;1740.80;;;;;;5053044;28;20028;-67
2021/09/07 04:46:34;;;;;;;15.63;8.63;;;435.30;1740.80;;;;;;5035132;28;20037;-67
2021/09/07 04:48:59;;;;;;;18.67;9.02;;;435.30;1740.80;;;;;;5053150;28;20032;-67
2021/09/07 04:51:26;;;;;;;17.92;8.70;;;435.30;1740.80;;;;;;5053039;28;20025;-67
2021/09/07 04:53:52;;;;;;;15.73;9.48;;;435.30;1740.80;;;;;;5053257;28;20098;-67
2021/09/07 04:56:18;;;;;;;21.33;8.70;;;435.30;1715.20;;;;;;5052873;28;20347;-67
2021/09/07 04:58:44;;;;;;;19.85;9.43;;;435.40;1715.20;;;;;;5053082;28;20150;-67
2021/09/07 05:01:10;;;;;;;14.80;8.45;;;435.40;1740.80;;;;;;5053081;28;20052;-69
2021/09/07 05:03:36;;;;;;;14.88;8.85;;;435.50;1740.80;;;;;;5056300;28;20025;-73
2021/09/07 05:06:02;;;;;;;15.88;8.80;;;435.50;1715.20;;;;;;5038840;28;20029;-74
2021/09/07 05:08:27;;;;;;;19.58;9.02;;;435.60;1715.20;;;;;;5039232;28;20041;-73
2021/09/07 05:10:54;;;;;;;20.23;8.50;;;435.60;1715.20;;;;;;5056837;28;20467;-73
2021/09/07 05:13:19;;;;;;;18.60;8.88;;;435.60;1689.60;;;;;;5057137;28;20053;-74
2021/09/07 05:15:45;;;;;;;11.65;7.82;;;435.60;1715.20;;;;;;5056506;28;20076;-71
2021/09/07 05:18:11;;;;;;;17.38;8.60;;;435.70;1689.60;;;;;;5056623;28;20090;-74
2021/09/07 05:20:37;;;;;;;13.27;8.73;;;435.70;1689.60;;;;;;5056798;28;20476;-73
2021/09/07 05:23:03;;;;;;;16.58;8.75;;;435.80;1689.60;;;;;;5056453;28;20025;-74
2021/09/07 05:25:30;;;;;;;15.13;8.23;;;435.80;1689.60;;;;;;5056215;28;20021;-74
2021/09/07 05:27:56;;;;;;;12.10;8.50;;;435.90;1689.60;;;;;;5045199;28;20048;-74
2021/09/07 05:30:22;;;;;;;13.40;8.05;;;435.90;1689.60;;;;;;5064213;28;20013;-71
2021/09/07 05:32:48;;;;;;;20.95;7.78;;;435.90;1689.60;;;;;;5042838;28;20029;-73
2021/09/07 05:35:14;;;;;;;9.52;7.72;;;435.90;1689.60;;;;;;5056413;28;20021;-73
2021/09/07 05:37:41;;;;;;;18.05;8.73;;;435.90;1715.20;;;;;;5066245;28;20117;-73
2021/09/07 05:40:12;;;;;;;14.23;8.90;;;436.00;1689.60;;;;;;5075803;28;20029;-74
2021/09/07 05:42:41;;;;;;;16.05;8.40;;;436.00;1715.20;;;;;;5069681;28;20509;-73
2021/09/07 05:45:08;;;;;;;13.25;8.13;;;436.00;1689.60;;;;;;5063647;28;20481;-73
2021/09/07 05:47:34;;;;;;;15.30;8.52;;;436.10;1689.60;;;;;;5056825;28;20041;-74
2021/09/07 05:50:00;;;;;;;13.02;7.18;;;436.10;1715.20;;;;;;5075610;28;20024;-74
2021/09/07 05:52:26;;;;;;;14.02;7.45;;;460.80;1715.20;;;;;;5076456;28;20027;-74
2021/09/07 05:54:51;;;;;;;19.58;8.85;;;460.80;1715.20;;;;;;5075237;28;20458;-72
2021/09/07 05:57:17;;;;;;;21.05;8.05;;;460.90;1715.20;;;;;;5076199;28;20024;-72
2021/09/07 05:59:43;;;;;;;15.48;7.97;;;460.90;1715.20;;;;;;5075875;28;20024;-70
2021/09/07 06:02:09;;;;;;;11.30;7.35;;;460.90;1715.20;;;;;;5057111;28;20039;-72
2021/09/07 06:04:34;;;;;;;17.27;7.85;;;460.90;1715.20;;;;;;5075810;28;20028;-71
2021/09/07 06:07:00;;;;;;;15.00;7.93;;;461.00;1715.20;;;;;;5075721;28;20032;-71
2021/09/07 06:09:26;;;;;;;14.02;7.95;;;461.00;1689.60;;;;;;5075251;28;20032;-74
2021/09/07 06:11:51;;;;;;;24.67;14.35;;;461.00;1689.60;;;;;;5075219;28;20016;-71
2021/09/07 06:14:17;;;;;;;20.25;12.90;;;461.10;1715.20;;;;;;5074236;28;20394;-71
2021/09/07 06:16:43;;;;;;;16.88;10.48;;;461.10;1715.20;;;;;;5075531;28;20025;-71
2021/09/07 06:19:08;;;;;;;16.80;8.93;;;461.20;1689.60;;;;;;5075673;28;20025;-71
2021/09/07 06:21:34;;;;;;;14.07;8.25;;;461.20;1689.60;;;;;;5075767;28;20032;-72
2021/09/07 06:24:00;;;;;;;12.90;7.05;;;461.20;1689.60;;;;;;5075831;28;20028;-71
2021/09/07 06:26:26;;;;;;;10.60;7.18;;;461.30;1689.60;;;;;;5075736;28;20025;-71
2021/09/07 06:28:52;;;;;;;11.63;6.82;;;461.30;1689.60;;;;;;5075198;28;20033;-71
2021/09/07 06:31:17;;;;;;;12.15;6.97;;;461.40;1689.60;;;;;;5075585;28;20027;-71
2021/09/07 06:33:43;;;;;;;15.55;7.20;;;461.50;1689.60;;;;;;5075479;28;20094;-72
2021/09/07 06:36:09;;;;;;;11.68;6.82;;;461.50;1689.60;;;;;;5062558;28;20548;-71
2021/09/07 06:38:35;;;;;;;15.60;6.97;;;461.50;1689.60;;;;;;5045296;28;20071;-71
2021/09/07 06:41:00;;;;;;;12.18;6.70;;;461.60;1689.60;;;;;;5062541;28;20025;-71
2021/09/07 06:43:26;;;;;;;12.20;6.40;;;461.60;1689.60;;;;;;5044659;28;20047;-71
2021/09/07 06:45:52;;;;;;;10.88;5.88;;;486.40;1664.00;;;;;;5061515;28;20049;-71
2021/09/07 06:48:17;;;;;;;12.93;6.43;;;486.40;1664.00;;;;;;5064529;28;20087;-71
2021/09/07 06:50:43;;;;;;;18.10;7.05;;;486.40;1638.40;;;;;;5061465;28;20107;-71
2021/09/07 06:53:09;;;;;;;15.60;5.80;;;486.50;1638.40;;;;;;5063852;28;20017;-71
2021/09/07 06:55:38;;;;;;;12.20;5.45;;;486.60;1638.40;;;;;;5062694;28;20071;-71
2021/09/07 06:58:04;;;;;;;22.17;6.20;;;486.80;1612.80;;;;;;5036523;28;20052;-70
2021/09/07 07:00:32;;;;;;;14.77;5.40;;;486.80;1587.20;;;;;;5054789;28;20017;-71
2021/09/07 07:02:58;;;;;;;14.68;6.32;;;486.90;1587.20;;;;;;5054707;28;20036;-71
2021/09/07 07:05:25;;;;;;;20.02;5.72;;;487.10;1587.20;;;;;;5054766;28;20017;-71
2021/09/07 07:07:51;;;;;;;19.52;5.13;;;487.20;1561.60;;;;;;5054771;28;20033;-71
2021/09/07 07:10:17;;;;;;;12.32;5.60;;;487.30;1561.60;;;;;;5054614;28;20473;-71
2021/09/07 07:12:43;;;;;;;13.60;5.20;;;512.00;1510.40;;;;;;5054411;28;20036;-71
2021/09/07 07:15:10;;;;;;;9.00;5.13;;;512.20;1484.80;;;;;;5054446;28;20100;-71
2021/09/07 07:17:36;;;;;;;13.65;5.38;;;512.40;1484.80;;;;;;5054463;28;20415;-71
2021/09/07 07:20:02;;;;;;;10.02;4.93;;;512.60;1459.20;;;;;;5054406;28;20083;-71
2021/09/07 07:22:28;;;;;;;14.35;5.18;;;512.80;1433.60;;;;;;5054635;28;20021;-71
2021/09/07 07:24:54;;;;;;;8.90;4.93;;;537.60;1433.60;;;;;;5054069;28;20017;-71
2021/09/07 07:27:20;;;;;;;8.77;5.30;;;537.70;1408.00;;;;;;5036130;28;20037;-71
2021/09/07 07:29:46;;;;;;;8.65;5.22;;;537.90;1408.00;;;;;;5054287;28;20108;-71
2021/09/07 07:32:11;;;;;;;11.77;5.20;;;538.10;1382.40;;;;;;5053684;28;20055;-70
2021/09/07 07:34:37;;;;;;;10.40;5.00;;;538.30;1382.40;;;;;;5053976;28;20120;-71
2021/09/07 07:37:05;;;;;;;6.28;4.22;;;563.20;1356.80;;;;;;5035840;28;20029;-70
2021/09/07 07:39:31;;;;;;;12.95;4.35;;;563.30;1331.20;;;;;;5053918;28;20036;-71
2021/09/07 07:41:57;;;;;;;16.63;5.15;;;563.50;1305.60;;;;;;5054282;28;20438;-71
2021/09/07 07:44:23;;;;;;;8.38;4.70;;;563.60;1280.00;;;;;;5053861;28;20117;-70
2021/09/07 07:46:49;;;;;;;13.23;4.72;;;563.80;1305.60;;;;;;5054221;28;20021;-70
2021/09/07 07:49:15;;;;;;;11.20;4.45;;;564.00;1280.00;;;;;;5054059;28;20037;-71
2021/09/07 07:51:41;;;;;;;9.23;4.78;;;588.80;1254.40;;;;;;5054112;28;20100;-70
2021/09/07 07:54:10;;;;;;;7.78;4.70;;;588.90;1254.40;;;;;;5035219;28;20082;-71
2021/09/07 07:56:37;;;;;;;7.95;4.63;;;589.00;1254.40;;;;;;5035722;28;20032;-70
2021/09/07 07:59:02;;;;;;;10.13;4.53;;;589.20;1254.40;;;;;;5036125;28;20021;-70
2021/09/07 08:01:28;;;;;;;9.85;4.60;;;589.20;1228.80;;;;;;5053839;28;20017;-70
2021/09/07 08:03:56;;;;;;;6.70;4.68;;;589.40;1228.80;;;;;;5053910;28;20029;-70
2021/09/07 08:06:22;;;;;;;12.55;5.65;;;589.50;1228.80;;;;;;5053372;28;20478;-70
2021/09/07 08:08:50;;;;;;;8.13;4.07;;;589.70;1203.20;;;;;;5053862;28;20037;-70
2021/09/07 08:11:18;;;;;;;12.40;4.72;;;614.40;1177.60;;;;;;5053881;28;20025;-70
2021/09/07 08:13:44;;;;;;;7.03;4.50;;;614.50;1152.00;;;;;;5053268;28;20115;-70
2021/09/07 08:16:10;;;;;;;9.98;4.53;;;614.70;1152.00;;;;;;5053719;28;20045;-70
2021/09/07 08:18:36;;;;;;;11.38;4.90;;;614.80;1152.00;;;;;;5053839;28;20373;-70
2021/09/07 08:21:02;;;;;;;8.48;4.63;;;614.80;1152.00;;;;;;5053674;28;20463;-70
2021/09/07 08:23:27;;;;;;;11.95;4.53;;;615.00;1126.40;;;;;;5053608;28;20426;-70
2021/09/07 08:25:53;;;;;;;7.57;4.65;;;615.10;1126.40;;;;;;5053605;28;20021;-70
2021/09/07 08:28:20;;;;;;;7.35;4.53;;;615.20;1100.80;;;;;;5053557;28;20136;-70
2021/09/07 08:30:47;;;;;;;6.75;4.25;;;615.20;1126.40;;;;;;5053392;28;20028;-70
2021/09/07 08:33:16;;;;;;;9.45;4.75;;;615.30;1126.40;;;;;;5053327;28;20049;-70
2021/09/07 08:35:42;;;;;;;11.88;4.53;;;615.30;1126.40;;;;;;5053360;28;20536;-70
2021/09/07 08:38:09;;;;;;;8.88;4.53;;;615.30;1100.80;;;;;;5038050;28;20385;-70
2021/09/07 08:40:35;;;;;;;10.38;4.32;;;640.00;1100.80;;;;;;5057557;28;20360;-70
2021/09/07 08:43:06;;;;;;;7.65;4.43;;;640.20;1075.20;;;;;;5057639;28;20036;-70
2021/09/07 08:45:33;;;;;;;7.05;4.72;;;640.30;1075.20;;;;;;5057476;28;20025;-70
2021/09/07 08:48:01;;;;;;;7.30;3.80;;;640.50;1075.20;;;;;;5057423;28;20033;-70
2021/09/07 08:50:27;;;;;;;8.50;4.43;;;640.50;1075.20;;;;;;5057510;28;20079;-70
2021/09/07 08:52:59;;;;;;;8.35;4.90;;;640.60;1024.00;;;;;;5057153;28;20029;-70
2021/09/07 08:55:31;;;;;;;12.80;5.00;;;640.70;998.40;;;;;;5054922;28;20253;-69
2021/09/07 08:57:56;;;;;;;8.55;4.88;;;640.80;1024.00;;;;;;5038814;28;20195;-70
2021/09/07 09:00:27;;;;;;;13.13;5.82;;;665.60;1049.60;;;;;;5057077;28;20053;-69
2021/09/07 09:02:53;;;;;;;8.38;4.70;;;665.60;1049.60;;;;;;5038467;28;20040;-69
2021/09/07 09:05:30;;;;;;;9.43;4.88;;;665.60;1049.60;;;;;;5056952;28;20024;-70
2021/09/07 09:07:57;;;;;;;7.68;4.35;;;665.60;1049.60;;;;;;5056792;28;20048;-70
2021/09/07 09:10:24;;;;;;;8.63;4.20;;;665.70;1049.60;;;;;;5056894;28;20100;-69
2021/09/07 09:13:13;;;;;;;8.23;4.53;;;665.80;1024.00;;;;;;5056719;28;20040;-70
2021/09/07 09:15:40;;;;;;;9.85;4.70;;;665.80;998.40;;;;;;5038686;28;20028;-70
2021/09/07 09:18:11;;;;;;;6.93;4.32;;;666.00;972.80;;;;;;5056765;28;20080;-70
2021/09/07 09:20:38;;;;;;;10.30;4.18;;;666.10;972.80;;;;;;5038883;28;20418;-69
2021/09/07 09:23:08;;;;;;;6.15;4.20;;;666.10;972.80;;;;;;5056747;28;20437;-69
2021/09/07 09:25:42;;;;;;;8.30;3.83;;;666.10;972.80;;;;;;5038598;28;20067;-69
2021/09/07 09:28:16;;;;;;;14.82;4.10;;;666.20;947.20;;;;;;5056427;28;20544;-70
2021/09/07 09:30:54;;;;;;;15.30;5.00;;;666.20;947.20;;;;;;5056499;28;20379;-70
2021/09/07 09:33:23;;;;;;;7.07;4.28;;;666.40;972.80;;;;;;5056534;28;20025;-70
2021/09/07 09:36:00;;;;;;;6.15;4.30;;;666.40;972.80;;;;;;5038399;28;20029;-69
2021/09/07 09:38:28;;;;;;;7.00;4.15;;;666.40;947.20;;;;;;5056645;28;20479;-70
2021/09/07 09:41:00;;;;;;;6.00;4.57;;;691.20;947.20;;;;;;5056080;28;20025;-69
2021/09/07 09:43:29;;;;;;;14.20;4.75;;;691.20;972.80;;;;;;5056137;28;20021;-70
2021/09/07 09:45:55;;;;;;;14.88;4.75;;;691.30;947.20;;;;;;5056132;28;20052;-70
2021/09/07 09:48:26;;;;;;;6.43;4.50;;;691.30;972.80;;;;;;5056001;28;20103;-70
2021/09/07 09:50:53;;;;;;;14.73;4.30;;;691.40;947.20;;;;;;5056291;28;20024;-70
2021/09/07 09:53:20;;;;;;;7.03;4.53;;;691.40;947.20;;;;;;5056055;28;20025;-70
2021/09/07 09:55:50;;;;;;;11.68;4.63;;;691.40;921.60;;;;;;5037529;28;20033;-69
2021/09/07 09:58:17;;;;;;;9.45;4.38;;;691.60;896.00;;;;;;5055855;28;20107;-70
2021/09/07 10:00:49;;;;;;;16.52;4.38;;;691.70;896.00;;;;;;5038108;28;20046;-70
2021/09/07 10:03:16;;;;;;;11.02;5.18;;;691.70;896.00;;;;;;5055854;28;20021;-69
2021/09/07 10:05:43;;;;;;;7.32;3.97;;;691.80;870.40;;;;;;5055810;28;20024;-70
2021/09/07 10:08:11;;;;;;;9.70;4.10;;;691.70;896.00;;;;;;5055519;28;20044;-67
2021/09/07 10:10:42;;;;;;;8.40;4.05;;;691.80;921.60;;;;;;5055605;28;20021;-67
2021/09/07 10:13:16;;;;;;;11.05;4.72;;;691.70;896.00;;;;;;5055566;28;20064;-67
2021/09/07 10:15:56;;;;;;;14.55;4.47;;;691.80;870.40;;;;;;5055490;28;20017;-67
2021/09/07 10:24:16;;;;;;;7.18;3.72;;;692.00;844.80;;;;;;4898538;29;20037;-67
2021/09/07 10:26:42;;;;;;;7.70;4.18;;;692.00;844.80;;;;;;4898310;29;20070;-67
2021/09/07 10:29:10;;;;;;;10.30;4.20;;;692.10;844.80;;;;;;4898233;29;20406;-67
2021/09/07 10:31:43;;;;;;;9.57;4.47;;;716.80;844.80;;;;;;4892492;29;20028;-68
2021/09/07 10:34:09;;;;;;;9.07;3.78;;;716.80;844.80;;;;;;4879465;29;20036;-67
2021/09/07 10:36:55;;;;;;;6.88;3.85;;;716.90;819.20;;;;;;4880180;29;20039;-67
2021/09/07 10:39:38;;;;;;;14.35;3.85;;;716.90;819.20;;;;;;4887153;29;20029;-67
2021/09/07 10:42:12;;;;;;;9.27;4.07;;;716.90;819.20;;;;;;4887971;29;20145;-67
2021/09/07 10:44:42;;;;;;;7.90;3.90;;;716.90;819.20;;;;;;4886256;29;20033;-67
2021/09/07 10:47:13;;;;;;;11.70;4.18;;;716.90;793.60;;;;;;4886869;29;20033;-69
2021/09/07 10:49:53;;;;;;;6.78;3.70;;;717.00;819.20;;;;;;4888193;29;20035;-67
2021/09/07 10:52:25;;;;;;;9.05;3.53;;;717.00;819.20;;;;;;4886570;29;20036;-67
2021/09/07 10:55:07;;;;;;;12.68;4.65;;;717.00;819.20;;;;;;4886794;29;20041;-66
2021/09/07 10:57:35;;;;;;;11.23;4.45;;;717.00;819.20;;;;;;4906632;28;20034;-68
2021/09/07 11:00:08;;;;;;;6.32;3.78;;;717.00;819.20;;;;;;4980827;28;20038;-68
2021/09/07 11:02:42;;;;;;;9.18;4.40;;;717.00;793.60;;;;;;5073249;28;20024;-69
2021/09/07 11:05:09;;;;;;;9.32;4.35;;;717.00;819.20;;;;;;5065050;28;20021;-67
2021/09/07 11:07:46;;;;;;;14.10;4.35;;;717.00;819.20;;;;;;5057226;28;20099;-67
2021/09/07 11:10:18;;;;;;;7.60;5.03;;;717.10;793.60;;;;;;5046475;28;20035;-67
2021/09/07 11:12:51;;;;;;;13.23;6.70;;;717.10;793.60;;;;;;5070369;28;20120;-69
2021/09/07 11:15:23;;;;;;;12.45;4.90;;;717.10;793.60;;;;;;5070091;28;20033;-66
2021/09/07 11:18:02;;;;;;;10.00;5.25;;;717.10;819.20;;;;;;5058850;28;20112;-71
2021/09/07 11:20:36;;;;;;;9.70;4.65;;;717.10;819.20;;;;;;5059852;28;20024;-71
2021/09/07 11:23:26;;;;;;;13.07;5.53;;;717.20;819.20;;;;;;5064387;28;20017;-67
2021/09/07 11:25:59;;;;;;;7.35;4.65;;;717.20;819.20;;;;;;5060066;28;20094;-68
2021/09/07 11:28:25;;;;;;;8.25;4.40;;;717.20;819.20;;;;;;5060969;28;20037;-68
2021/09/07 11:30:52;;;;;;;9.35;5.45;;;717.20;793.60;;;;;;5065362;28;20020;-72
2021/09/07 11:33:22;;;;;;;14.95;5.35;;;717.20;793.60;;;;;;5045247;28;20039;-67
2021/09/07 11:35:50;;;;;;;7.60;4.55;;;717.20;793.60;;;;;;5059712;28;20017;-71
2021/09/07 11:38:25;;;;;;;7.45;4.65;;;717.20;793.60;;;;;;5062986;28;20041;-67
2021/09/07 11:40:54;;;;;;;11.55;5.13;;;717.20;793.60;;;;;;5063786;28;20029;-67
2021/09/07 11:43:40;;;;;;;8.80;4.90;;;717.20;819.20;;;;;;5062455;28;20035;-67
2021/09/07 11:46:29;;;;;;;11.02;4.55;;;717.20;793.60;;;;;;5040805;28;20057;-67
2021/09/07 11:49:08;;;;;;;8.50;4.88;;;717.20;819.20;;;;;;5073620;28;20098;-67
2021/09/07 11:51:36;;;;;;;6.80;4.22;;;717.20;793.60;;;;;;5074212;28;20016;-67
2021/09/07 11:54:04;;;;;;;9.60;4.25;;;717.30;793.60;;;;;;5055230;28;20355;-69
2021/09/07 11:56:33;;;;;;;11.27;5.55;;;717.30;793.60;;;;;;5073893;28;20031;-67
2021/09/07 11:59:11;;;;;;;18.25;4.93;;;717.20;793.60;;;;;;5074070;28;20032;-67
2021/09/07 12:01:52;;;;;;;7.45;4.75;;;717.20;793.60;;;;;;5073778;28;20028;-68
2021/09/07 12:04:19;;;;;;;9.23;4.10;;;717.20;793.60;;;;;;5073976;28;20025;-67
2021/09/07 12:06:46;;;;;;;7.35;4.18;;;717.20;793.60;;;;;;5074020;28;20021;-68
2021/09/07 12:09:15;;;;;;;9.05;4.05;;;717.20;793.60;;;;;;5073913;28;20032;-69
2021/09/07 12:12:02;;;;;;;11.18;4.40;;;717.20;793.60;;;;;;5073082;28;20020;-67
2021/09/07 12:14:48;;;;;;;7.93;4.20;;;717.20;793.60;;;;;;4992577;28;20121;-68
2021/09/07 12:17:16;;;;;;;9.75;4.07;;;717.20;793.60;;;;;;4976517;28;20428;-67